Map

Track Data

SID SEASON NUMBER BASIN SUBBASIN NAME ISO_TIME NATURE LAT LON WMO_WIND WMO_PRES WMO_AGENCY TRACK_TYPE DIST2LAND LANDFALL IFLAG USA_AGENCY USA_ATCF_ID USA_LAT USA_LON USA_RECORD USA_STATUS USA_WIND USA_PRES USA_SSHS USA_R34_NE USA_R34_SE USA_R34_SW USA_R34_NW USA_R50_NE USA_R50_SE USA_R50_SW USA_R50_NW USA_R64_NE USA_R64_SE USA_R64_SW USA_R64_NW USA_POCI USA_ROCI USA_RMW USA_EYE TOKYO_LAT TOKYO_LON TOKYO_GRADE TOKYO_WIND TOKYO_PRES TOKYO_R50_DIR TOKYO_R50_LONG TOKYO_R50_SHORT TOKYO_R30_DIR TOKYO_R30_LONG TOKYO_R30_SHORT TOKYO_LAND CMA_LAT CMA_LON CMA_CAT CMA_WIND CMA_PRES HKO_LAT HKO_LON HKO_CAT HKO_WIND HKO_PRES NEWDELHI_LAT NEWDELHI_LON NEWDELHI_GRADE NEWDELHI_WIND NEWDELHI_PRES NEWDELHI_CI NEWDELHI_DP NEWDELHI_POCI REUNION_LAT REUNION_LON REUNION_TYPE REUNION_WIND REUNION_PRES REUNION_TNUM REUNION_CI REUNION_RMW REUNION_R34_NE REUNION_R34_SE REUNION_R34_SW REUNION_R34_NW REUNION_R50_NE REUNION_R50_SE REUNION_R50_SW REUNION_R50_NW REUNION_R64_NE REUNION_R64_SE REUNION_R64_SW REUNION_R64_NW BOM_LAT BOM_LON BOM_TYPE BOM_WIND BOM_PRES BOM_TNUM BOM_CI BOM_RMW BOM_R34_NE BOM_R34_SE BOM_R34_SW BOM_R34_NW BOM_R50_NE BOM_R50_SE BOM_R50_SW BOM_R50_NW BOM_R64_NE BOM_R64_SE BOM_R64_SW BOM_R64_NW BOM_ROCI BOM_POCI BOM_EYE BOM_POS_METHOD BOM_PRES_METHOD NADI_LAT NADI_LON NADI_CAT NADI_WIND NADI_PRES WELLINGTON_LAT WELLINGTON_LON WELLINGTON_WIND WELLINGTON_PRES DS824_LAT DS824_LON DS824_STAGE DS824_WIND DS824_PRES TD9636_LAT TD9636_LON TD9636_STAGE TD9636_WIND TD9636_PRES TD9635_LAT TD9635_LON TD9635_WIND TD9635_PRES TD9635_ROCI NEUMANN_LAT NEUMANN_LON NEUMANN_CLASS NEUMANN_WIND NEUMANN_PRES MLC_LAT MLC_LON MLC_CLASS MLC_WIND MLC_PRES USA_GUST BOM_GUST BOM_GUST_PER REUNION_GUST REUNION_GUST_PER USA_SEAHGT USA_SEARAD_NE USA_SEARAD_SE USA_SEARAD_SW USA_SEARAD_NW STORM_SPEED STORM_DIR
1973308N07091 1973 119 NI BB NOT_NAMED 1973-11-03 12:00:00 TS 7.10000 90.8000 main 514 514 O________OO___ jtwc_io IO121973 7.10000 90.8000 -1 7.10000 90.8000 TC 7.10000 90.8000 1 4 303
1973308N07091 1973 119 NI BB NOT_NAMED 1973-11-03 15:00:00 TS 7.19710 90.6504 main 529 529 P________PP___ IO121973 7.18000 90.6600 -1 7.18000 90.6600 TC 7.23129 90.6313 1 4 306
1973308N07091 1973 119 NI BB NOT_NAMED 1973-11-03 18:00:00 TS 7.32335 90.4867 main 553 553 O________OP___ jtwc_io IO121973 7.30000 90.5000 -1 7.30000 90.5000 TC 7.37004 90.4600 1 5 311
1973308N07091 1973 119 NI BB NOT_NAMED 1973-11-03 21:00:00 TS 7.49792 90.2996 main 582 582 P________PP___ IO121973 7.48500 90.3075 -1 7.48500 90.3075 TC 7.52377 90.2838 1 5 314
1973308N07091 1973 119 NI BB NOT_NAMED 1973-11-04 00:00:00 TS 7.70000 90.1000 main 610 610 O________OO___ jtwc_io IO121973 7.70000 90.1000 -1 7.70000 90.1000 TC 7.70000 90.1000 1 6 315
1973308N07091 1973 119 NI BB NOT_NAMED 1973-11-04 03:00:00 TS 7.89614 89.9024 main 639 639 P________PP___ IO121973 7.89249 89.9000 -1 7.89249 89.9000 TC 7.90343 89.9072 1 6 316
1973308N07091 1973 119 NI BB NOT_NAMED 1973-11-04 06:00:00 TS 8.10916 89.7025 main 669 669 O________OP___ jtwc_io IO121973 8.10000 89.7000 XX 35 -5 8.10000 89.7000 TC 35 8.12749 89.7075 1 6 319
1973308N07091 1973 119 NI BB NOT_NAMED 1973-11-04 09:00:00 TS 8.35426 89.5013 main 703 703 P________PP___ IO121973 8.34999 89.5000 XX 37 -5 8.34999 89.5000 TC 37 8.36280 89.5040 1 6 321
1973308N07091 1973 119 NI BB NOT_NAMED 1973-11-04 12:00:00 TS 8.60000 89.3000 main 733 733 O________OO___ jtwc_io IO121973 8.60000 89.3000 XX 40 -5 8.60000 89.3000 TC 40 8.60000 89.3000 2 6 318
1973308N07091 1973 119 NI BB NOT_NAMED 1973-11-04 15:00:00 TS 8.80020 89.0986 main 762 762 P________PP___ IO121973 8.79999 89.1000 XX 45 -5 8.79999 89.1000 TC 45 8.80062 89.0958 2 6 315
1973308N07091 1973 119 NI BB NOT_NAMED 1973-11-04 18:00:00 TS 9.00167 88.8974 main 792 780 O________OP___ jtwc_io IO121973 9.00000 88.9000 XX 50 -5 9.00000 88.9000 TC 50 9.00500 88.8923 2 6 317
1973308N07091 1973 119 NI BB NOT_NAMED 1973-11-04 21:00:00 TS 9.22895 88.6975 main 780 764 P________PP___ IO121973 9.22749 88.7000 XX 52 -5 9.22749 88.7000 TC 52 9.23187 88.6926 2 6 322
1973308N07091 1973 119 NI BB NOT_NAMED 1973-11-05 00:00:00 TS 9.50000 88.5000 main 767 756 O________OO___ jtwc_io IO121973 9.50000 88.5000 XX 55 -5 9.50000 88.5000 TC 55 9.50000 88.5000 4 7 327
1973308N07091 1973 119 NI BB NOT_NAMED 1973-11-05 03:00:00 TS 9.83302 88.2969 main 756 747 P________PP___ IO121973 9.82750 88.2925 XX 57 -5 9.82750 88.2925 TC 57 9.84406 88.3057 4 8 331
1973308N07091 1973 119 NI BB NOT_NAMED 1973-11-05 06:00:00 TS 10.2092 88.1067 main 751 745 O________OP___ jtwc_io IO121973 10.2000 88.1000 XX 60 -5 10.2000 88.1000 TC 60 10.2275 88.1202 4 9 336
1973308N07091 1973 119 NI BB NOT_NAMED 1973-11-05 09:00:00 TS 10.6124 87.9448 main 749 749 P________PP___ IO121973 10.6075 87.9425 XX 60 -5 10.6075 87.9425 TC 60 10.6222 87.9495 4 9 339
1973308N07091 1973 119 NI BB NOT_NAMED 1973-11-05 12:00:00 TS 11.0000 87.8000 main 758 754 O________OO___ jtwc_io IO121973 11.0000 87.8000 XX 60 -5 11.0000 87.8000 TC 60 11.0000 87.8000 4 8 337
1973308N07091 1973 119 NI BB NOT_NAMED 1973-11-05 15:00:00 TS 11.3158 87.6440 main 753 753 P________PP___ IO121973 11.3150 87.6350 XX 60 -5 11.3150 87.6350 TC 60 11.3175 87.6621 4 7 335
1973308N07091 1973 119 NI BB NOT_NAMED 1973-11-05 18:00:00 TS 11.6050 87.5158 main 758 758 O________OP___ jtwc_io IO121973 11.6000 87.5000 XX 60 -5 11.6000 87.5000 TC 60 11.6149 87.5474 4 6 341
1973308N07091 1973 119 NI BB NOT_NAMED 1973-11-05 21:00:00 TS 11.9016 87.4380 main 760 737 P________PP___ IO121973 11.9000 87.4275 XX 60 -5 11.9000 87.4275 TC 60 11.9050 87.4590 4 6 349
1973308N07091 1973 119 NI BB NOT_NAMED 1973-11-06 00:00:00 TS 12.2000 87.4000 main 737 715 O________OO___ jtwc_io IO121973 12.2000 87.4000 XX 60 -5 12.2000 87.4000 TC 60 12.2000 87.4000 4 6 355
1973308N07091 1973 119 NI BB NOT_NAMED 1973-11-06 03:00:00 TS 12.5023 87.3813 main 715 694 P________PP___ IO121973 12.4925 87.3925 XX 60 -5 12.4925 87.3925 TC 60 12.5218 87.3590 4 6 359
1973308N07091 1973 119 NI BB NOT_NAMED 1973-11-06 06:00:00 TS 12.8167 87.3825 main 694 673 O________OP___ jtwc_io IO121973 12.8000 87.4000 XX 60 -5 12.8000 87.4000 TC 60 12.8500 87.3475 4 7 1
1973308N07091 1973 119 NI BB NOT_NAMED 1973-11-06 09:00:00 TS 13.1594 87.3824 main 667 642 P________PP___ IO121973 13.1500 87.3925 XX 60 -5 13.1500 87.3925 TC 60 13.1781 87.3622 4 7 0
1973308N07091 1973 119 NI BB NOT_NAMED 1973-11-06 12:00:00 TS 13.5000 87.4000 main 642 614 O________OO___ jtwc_io IO121973 13.5000 87.4000 XX 60 -5 13.5000 87.4000 TC 60 13.5000 87.4000 4 6 5
1973308N07091 1973 119 NI BB NOT_NAMED 1973-11-06 15:00:00 TS 13.7912 87.4385 main 614 593 P________PP___ IO121973 13.8075 87.4350 XX 57 -5 13.8075 87.4350 TC 57 13.7585 87.4455 4 6 10
1973308N07091 1973 119 NI BB NOT_NAMED 1973-11-06 18:00:00 TS 14.0725 87.5043 main 593 583 O________OP___ jtwc_io IO121973 14.1000 87.5000 XX 55 -5 14.1000 87.5000 TC 55 14.0176 87.5129 4 6 15
1973308N07091 1973 119 NI BB NOT_NAMED 1973-11-06 21:00:00 TS 14.3426 87.5946 main 583 556 P________PP___ IO121973 14.3550 87.5926 XX 55 -5 14.3550 87.5926 TC 55 14.3178 87.5988 4 7 17
1973308N07091 1973 119 NI BB NOT_NAMED 1973-11-07 00:00:00 TS 14.7000 87.7000 main 556 524 O________OO___ jtwc_io IO121973 14.7000 87.7000 XX 55 -5 14.7000 87.7000 TC 55 14.7000 87.7000 4 9 12
1973308N07091 1973 119 NI BB NOT_NAMED 1973-11-07 03:00:00 TS 15.2616 87.8038 main 516 477 P________PP___ IO121973 15.2550 87.7926 XX 55 -5 15.2550 87.7926 TC 55 15.2747 87.8262 4 12 10
1973308N07091 1973 119 NI BB NOT_NAMED 1973-11-07 06:00:00 TS 15.9075 87.9213 main 477 426 O________OP___ jtwc_io IO121973 15.9000 87.9000 XX 55 -5 15.9000 87.9000 TC 55 15.9226 87.9640 4 13 11
1973308N07091 1973 119 NI BB NOT_NAMED 1973-11-07 09:00:00 TS 16.5547 88.0649 main 420 375 P________PP___ IO121973 16.5525 88.0499 XX 55 -5 16.5525 88.0499 TC 55 16.5592 88.0950 4 12 13
1973308N07091 1973 119 NI BB NOT_NAMED 1973-11-07 12:00:00 TS 17.1000 88.2000 main 375 353 O________OO___ jtwc_io IO121973 17.1000 88.2000 XX 55 -5 17.1000 88.2000 TC 55 17.1000 88.2000 4 9 16
1973308N07091 1973 119 NI BB NOT_NAMED 1973-11-07 15:00:00 TS 17.4080 88.3182 main 353 341 P________PP___ IO121973 17.4100 88.3301 XX 52 -5 17.4100 88.3301 TC 52 17.4042 88.2944 4 5 19
1973308N07091 1973 119 NI BB NOT_NAMED 1973-11-07 18:00:00 TS 17.6032 88.3849 main 341 323 O________OP___ jtwc_io IO121973 17.6000 88.4000 XX 50 -5 17.6000 88.4000 TC 50 17.6097 88.3547 4 4 10
1973308N07091 1973 119 NI BB NOT_NAMED 1973-11-07 21:00:00 TS 17.7801 88.3842 main 323 299 P________PP___ IO121973 17.7775 88.3949 XX 47 -5 17.7775 88.3949 TC 47 17.7854 88.3627 4 4 348
1973308N07091 1973 119 NI BB NOT_NAMED 1973-11-08 00:00:00 TS 18.0000 88.3000 main 299 260 O________OO___ jtwc_io IO121973 18.0000 88.3000 XX 45 -5 18.0000 88.3000 TC 45 18.0000 88.3000 4 6 339
1973308N07091 1973 119 NI BB NOT_NAMED 1973-11-08 03:00:00 TS 18.3727 88.1386 main 252 206 P________PP___ IO121973 18.3700 88.1301 XX 45 -5 18.3700 88.1301 TC 45 18.3782 88.1557 4 9 335
1973308N07091 1973 119 NI BB NOT_NAMED 1973-11-08 06:00:00 TS 18.8000 87.9137 main 206 161 O________OP___ jtwc_io IO121973 18.8000 87.9000 XX 45 -5 18.8000 87.9000 TC 45 18.8001 87.9410 4 10 332
1973308N07091 1973 119 NI BB NOT_NAMED 1973-11-08 09:00:00 TS 19.2223 87.6652 main 161 107 P________PP___ IO121973 19.2225 87.6575 XX 42 -5 19.2225 87.6575 TC 42 19.2219 87.6806 4 9 329
1973308N07091 1973 119 NI BB NOT_NAMED 1973-11-08 12:00:00 TS 19.6000 87.4000 main 107 68 O________OO___ jtwc_io IO121973 19.6000 87.4000 XX 40 -5 19.6000 87.4000 TC 40 19.6000 87.4000 4 8 324
1973308N07091 1973 119 NI BB NOT_NAMED 1973-11-08 15:00:00 TS 19.8872 87.1450 main 61 30 P________PP___ IO121973 19.8799 87.1573 XX 35 -5 19.8799 87.1573 TC 35 19.9016 87.1203 4 7 316
1973308N07091 1973 119 NI BB NOT_NAMED 1973-11-08 18:00:00 TS 20.1126 86.8816 main 30 0 O________OP___ jtwc_io IO121973 20.1000 86.9000 XX 30 -5 20.1000 86.9000 TC 30 20.1377 86.8447 4 7 310
1973308N07091 1973 119 NI BB NOT_NAMED 1973-11-08 21:00:00 TS 20.3117 86.5974 main 0 0 P________PP___ IO121973 20.3026 86.6102 XX -5 20.3026 86.6102 TC 20.3299 86.5718 4 7 305
1973308N07091 1973 119 NI BB NOT_NAMED 1973-11-09 00:00:00 TS 20.5000 86.3000 main 0 O________OO___ jtwc_io IO121973 20.5000 86.3000 XX -5 20.5000 86.3000 TC 20.5000 86.3000 6 7 304

About IBTrACS Database

This database is a web-friendly format of International Best Track Archive for Climate Stewardship (IBTrACS), a global best track data archive curated by NOAA dating back to 1842.

Updated: 2021-12-08